sensor_id;sensor_type;location;lat;lon;timestamp;pressure;altitude;pressure_sealevel;temperature;humidity
23321;BME280;33376;51.306;4.752;2023-02-28T00:00:18;103483.47;;;0.74;nan
23321;BME280;33376;51.306;4.752;2023-02-28T00:02:44;103486.75;;;0.65;nan
23321;BME280;33376;51.306;4.752;2023-02-28T00:05:10;103482.38;;;0.66;nan
23321;BME280;33376;51.306;4.752;2023-02-28T00:07:36;103492.88;;;0.67;nan
23321;BME280;33376;51.306;4.752;2023-02-28T00:10:03;103483.00;;;0.56;nan
23321;BME280;33376;51.306;4.752;2023-02-28T00:12:29;103486.38;;;0.53;nan
23321;BME280;33376;51.306;4.752;2023-02-28T00:14:54;103493.31;;;0.53;nan
23321;BME280;33376;51.306;4.752;2023-02-28T00:17:19;103496.09;;;0.57;nan
23321;BME280;33376;51.306;4.752;2023-02-28T00:19:49;103498.81;;;0.62;nan
23321;BME280;33376;51.306;4.752;2023-02-28T00:22:15;103504.81;;;0.59;nan
23321;BME280;33376;51.306;4.752;2023-02-28T00:24:41;103509.66;;;0.46;nan
23321;BME280;33376;51.306;4.752;2023-02-28T00:27:06;103517.66;;;0.52;nan
23321;BME280;33376;51.306;4.752;2023-02-28T00:29:31;103514.03;;;0.47;nan
23321;BME280;33376;51.306;4.752;2023-02-28T00:31:57;103528.66;;;0.42;nan
23321;BME280;33376;51.306;4.752;2023-02-28T00:34:22;103518.44;;;0.48;nan
23321;BME280;33376;51.306;4.752;2023-02-28T00:36:47;103528.91;;;0.49;nan
23321;BME280;33376;51.306;4.752;2023-02-28T00:39:15;103531.53;;;0.49;nan
23321;BME280;33376;51.306;4.752;2023-02-28T00:41:41;103532.28;;;0.47;nan
23321;BME280;33376;51.306;4.752;2023-02-28T00:44:06;103531.38;;;0.45;nan
23321;BME280;33376;51.306;4.752;2023-02-28T00:46:31;103527.75;;;0.40;nan
23321;BME280;33376;51.306;4.752;2023-02-28T00:48:57;103530.41;;;0.41;nan
23321;BME280;33376;51.306;4.752;2023-02-28T00:51:22;103530.63;;;0.49;nan
23321;BME280;33376;51.306;4.752;2023-02-28T00:53:47;103524.56;;;0.50;nan
23321;BME280;33376;51.306;4.752;2023-02-28T00:56:12;103531.09;;;0.36;nan
23321;BME280;33376;51.306;4.752;2023-02-28T00:58:38;103531.00;;;0.33;nan
23321;BME280;33376;51.306;4.752;2023-02-28T01:01:03;103534.66;;;0.38;nan
23321;BME280;33376;51.306;4.752;2023-02-28T01:03:29;103535.66;;;0.43;nan
23321;BME280;33376;51.306;4.752;2023-02-28T01:05:54;103538.94;;;0.36;nan
23321;BME280;33376;51.306;4.752;2023-02-28T01:08:19;103549.88;;;0.24;nan
23321;BME280;33376;51.306;4.752;2023-02-28T01:10:44;103553.91;;;0.15;nan
23321;BME280;33376;51.306;4.752;2023-02-28T01:13:10;103556.16;;;0.03;nan
23321;BME280;33376;51.306;4.752;2023-02-28T01:15:36;103566.09;;;-0.13;nan
23321;BME280;33376;51.306;4.752;2023-02-28T01:18:01;103572.09;;;-0.15;nan
23321;BME280;33376;51.306;4.752;2023-02-28T01:20:26;103572.25;;;-0.37;nan
23321;BME280;33376;51.306;4.752;2023-02-28T01:22:51;103578.25;;;-0.38;nan
23321;BME280;33376;51.306;4.752;2023-02-28T01:25:17;103581.38;;;-0.50;nan
23321;BME280;33376;51.306;4.752;2023-02-28T01:27:42;103586.59;;;-0.50;nan
23321;BME280;33376;51.306;4.752;2023-02-28T01:30:08;103580.38;;;-0.53;nan
23321;BME280;33376;51.306;4.752;2023-02-28T01:32:33;103596.06;;;-0.52;nan
23321;BME280;33376;51.306;4.752;2023-02-28T01:34:59;103596.06;;;-0.52;nan
23321;BME280;33376;51.306;4.752;2023-02-28T01:37:24;103593.56;;;-0.49;nan
23321;BME280;33376;51.306;4.752;2023-02-28T01:39:49;103589.63;;;-0.61;nan
23321;BME280;33376;51.306;4.752;2023-02-28T01:42:14;103595.09;;;-0.54;nan
23321;BME280;33376;51.306;4.752;2023-02-28T01:44:57;103592.00;;;-0.44;nan
23321;BME280;33376;51.306;4.752;2023-02-28T01:47:24;103595.22;;;-0.51;nan
23321;BME280;33376;51.306;4.752;2023-02-28T01:49:50;103587.78;;;-0.40;nan
23321;BME280;33376;51.306;4.752;2023-02-28T01:52:16;103582.25;;;-0.24;nan
23321;BME280;33376;51.306;4.752;2023-02-28T01:54:43;103579.88;;;-0.17;nan
23321;BME280;33376;51.306;4.752;2023-02-28T01:57:12;103576.28;;;-0.20;nan
23321;BME280;33376;51.306;4.752;2023-02-28T01:59:43;103570.72;;;-0.04;nan
23321;BME280;33376;51.306;4.752;2023-02-28T02:02:13;103558.91;;;-0.20;nan
23321;BME280;33376;51.306;4.752;2023-02-28T02:04:41;103561.25;;;-0.27;nan
23321;BME280;33376;51.306;4.752;2023-02-28T02:07:08;103554.75;;;-0.40;nan
23321;BME280;33376;51.306;4.752;2023-02-28T02:09:33;103563.38;;;-0.42;nan
23321;BME280;33376;51.306;4.752;2023-02-28T02:11:59;103561.97;;;-0.33;nan
23321;BME280;33376;51.306;4.752;2023-02-28T02:42:39;103550.25;;;-0.94;nan
23321;BME280;33376;51.306;4.752;2023-02-28T02:45:09;103557.66;;;-1.06;nan
23321;BME280;33376;51.306;4.752;2023-02-28T02:47:36;103561.06;;;-1.07;nan
23321;BME280;33376;51.306;4.752;2023-02-28T02:50:04;103560.78;;;-0.91;nan
23321;BME280;33376;51.306;4.752;2023-02-28T02:52:34;103562.84;;;-1.06;nan
23321;BME280;33376;51.306;4.752;2023-02-28T02:55:02;103558.91;;;-0.95;nan
23321;BME280;33376;51.306;4.752;2023-02-28T02:57:33;103556.41;;;-0.92;nan
23321;BME280;33376;51.306;4.752;2023-02-28T03:00:00;103554.03;;;-0.86;nan
23321;BME280;33376;51.306;4.752;2023-02-28T03:02:27;103558.31;;;-0.88;nan
23321;BME280;33376;51.306;4.752;2023-02-28T03:04:59;103561.56;;;-0.93;nan
23321;BME280;33376;51.306;4.752;2023-02-28T03:07:26;103559.22;;;-0.86;nan
23321;BME280;33376;51.306;4.752;2023-02-28T03:09:52;103556.84;;;-0.80;nan
23321;BME280;33376;51.306;4.752;2023-02-28T03:12:18;103560.50;;;-0.75;nan
23321;BME280;33376;51.306;4.752;2023-02-28T03:15:07;103557.47;;;-0.62;nan
23321;BME280;33376;51.306;4.752;2023-02-28T03:17:36;103554.72;;;-0.66;nan
23321;BME280;33376;51.306;4.752;2023-02-28T03:22:57;103554.94;;;-0.60;nan
23321;BME280;33376;51.306;4.752;2023-02-28T03:25:32;103561.78;;;-0.62;nan
23321;BME280;33376;51.306;4.752;2023-02-28T03:30:35;103559.63;;;-0.50;nan
23321;BME280;33376;51.306;4.752;2023-02-28T03:33:03;103553.84;;;-0.42;nan
23321;BME280;33376;51.306;4.752;2023-02-28T03:35:32;103563.47;;;-0.39;nan
23321;BME280;33376;51.306;4.752;2023-02-28T03:38:44;103557.69;;;-0.31;nan
23321;BME280;33376;51.306;4.752;2023-02-28T03:40:49;103555.19;;;-0.28;nan
23321;BME280;33376;51.306;4.752;2023-02-28T03:43:18;103553.34;;;-0.30;nan
23321;BME280;33376;51.306;4.752;2023-02-28T03:45:44;103550.81;;;-0.27;nan
23321;BME280;33376;51.306;4.752;2023-02-28T03:48:15;103554.53;;;-0.21;nan
23321;BME280;33376;51.306;4.752;2023-02-28T03:50:44;103542.28;;;-0.23;nan
23321;BME280;33376;51.306;4.752;2023-02-28T03:53:18;103552.13;;;-0.15;nan
23321;BME280;33376;51.306;4.752;2023-02-28T03:55:46;103538.16;;;-0.17;nan
23321;BME280;33376;51.306;4.752;2023-02-28T04:00:59;103543.69;;;-0.06;nan
23321;BME280;33376;51.306;4.752;2023-02-28T04:03:34;103536.41;;;-0.18;nan
23321;BME280;33376;51.306;4.752;2023-02-28T04:05:59;103550.44;;;-0.13;nan
23321;BME280;33376;51.306;4.752;2023-02-28T04:08:24;103545.19;;;-0.14;nan
23321;BME280;33376;51.306;4.752;2023-02-28T04:13:50;103549.38;;;0.08;nan
23321;BME280;33376;51.306;4.752;2023-02-28T04:16:15;103541.72;;;0.14;nan
23321;BME280;33376;51.306;4.752;2023-02-28T04:18:41;103560.13;;;0.18;nan
23321;BME280;33376;51.306;4.752;2023-02-28T04:21:08;103553.34;;;0.23;nan
23321;BME280;33376;51.306;4.752;2023-02-28T04:23:33;103551.06;;;0.35;nan
23321;BME280;33376;51.306;4.752;2023-02-28T04:25:59;103553.09;;;0.44;nan
23321;BME280;33376;51.306;4.752;2023-02-28T04:28:24;103545.19;;;0.41;nan
23321;BME280;33376;51.306;4.752;2023-02-28T04:30:56;103545.34;;;0.47;nan
23321;BME280;33376;51.306;4.752;2023-02-28T04:33:21;103535.88;;;0.50;nan
23321;BME280;33376;51.306;4.752;2023-02-28T04:35:46;103533.31;;;0.52;nan
23321;BME280;33376;51.306;4.752;2023-02-28T04:38:23;103526.44;;;0.54;nan
23321;BME280;33376;51.306;4.752;2023-02-28T04:40:49;103527.78;;;0.71;nan
23321;BME280;33376;51.306;4.752;2023-02-28T04:43:14;103524.53;;;0.78;nan
23321;BME280;33376;51.306;4.752;2023-02-28T04:45:41;103523.47;;;0.71;nan
23321;BME280;33376;51.306;4.752;2023-02-28T04:48:08;103519.13;;;0.72;nan
23321;BME280;33376;51.306;4.752;2023-02-28T04:50:33;103508.69;;;0.72;nan
23321;BME280;33376;51.306;4.752;2023-02-28T04:53:00;103507.91;;;0.76;nan
23321;BME280;33376;51.306;4.752;2023-02-28T04:55:29;103512.25;;;0.75;nan
23321;BME280;33376;51.306;4.752;2023-02-28T04:57:54;103518.38;;;0.76;nan
23321;BME280;33376;51.306;4.752;2023-02-28T05:00:19;103522.59;;;0.72;nan
23321;BME280;33376;51.306;4.752;2023-02-28T05:02:45;103518.38;;;0.76;nan
23321;BME280;33376;51.306;4.752;2023-02-28T05:05:10;103513.00;;;0.71;nan
23321;BME280;33376;51.306;4.752;2023-02-28T05:07:41;103520.03;;;0.74;nan
23321;BME280;33376;51.306;4.752;2023-02-28T05:10:07;103525.25;;;0.74;nan
23321;BME280;33376;51.306;4.752;2023-02-28T05:12:33;103529.41;;;0.67;nan
23321;BME280;33376;51.306;4.752;2023-02-28T05:14:58;103535.81;;;0.78;nan
23321;BME280;33376;51.306;4.752;2023-02-28T05:17:23;103522.78;;;0.78;nan
23321;BME280;33376;51.306;4.752;2023-02-28T05:19:48;103526.41;;;0.83;nan
23321;BME280;33376;51.306;4.752;2023-02-28T05:22:14;103528.31;;;0.89;nan
23321;BME280;33376;51.306;4.752;2023-02-28T05:24:41;103525.63;;;0.86;nan
23321;BME280;33376;51.306;4.752;2023-02-28T05:27:07;103527.28;;;0.84;nan
23321;BME280;33376;51.306;4.752;2023-02-28T05:29:32;103521.38;;;0.89;nan
23321;BME280;33376;51.306;4.752;2023-02-28T05:31:59;103522.41;;;0.96;nan
23321;BME280;33376;51.306;4.752;2023-02-28T05:34:24;103523.88;;;0.86;nan
23321;BME280;33376;51.306;4.752;2023-02-28T05:36:49;103523.22;;;0.93;nan
23321;BME280;33376;51.306;4.752;2023-02-28T05:39:14;103522.41;;;0.96;nan
23321;BME280;33376;51.306;4.752;2023-02-28T05:41:42;103530.97;;;0.90;nan
23321;BME280;33376;51.306;4.752;2023-02-28T05:44:08;103528.47;;;0.95;nan
23321;BME280;33376;51.306;4.752;2023-02-28T05:46:33;103526.72;;;0.94;nan
23321;BME280;33376;51.306;4.752;2023-02-28T05:48:58;103524.16;;;0.95;nan
23321;BME280;33376;51.306;4.752;2023-02-28T05:51:25;103533.63;;;0.92;nan
23321;BME280;33376;51.306;4.752;2023-02-28T05:53:50;103532.03;;;0.97;nan
23321;BME280;33376;51.306;4.752;2023-02-28T05:56:16;103529.34;;;0.94;nan
23321;BME280;33376;51.306;4.752;2023-02-28T05:58:41;103523.25;;;0.95;nan
23321;BME280;33376;51.306;4.752;2023-02-28T06:04:04;103528.97;;;0.82;nan
23321;BME280;33376;51.306;4.752;2023-02-28T06:06:30;103541.25;;;0.84;nan
23321;BME280;33376;51.306;4.752;2023-02-28T06:08:55;103539.50;;;0.85;nan
23321;BME280;33376;51.306;4.752;2023-02-28T06:11:21;103532.53;;;0.84;nan
23321;BME280;33376;51.306;4.752;2023-02-28T06:13:46;103531.75;;;0.88;nan
23321;BME280;33376;51.306;4.752;2023-02-28T06:16:12;103546.56;;;0.87;nan
23321;BME280;33376;51.306;4.752;2023-02-28T06:18:37;103536.34;;;0.96;nan
23321;BME280;33376;51.306;4.752;2023-02-28T06:21:03;103545.81;;;0.93;nan
23321;BME280;33376;51.306;4.752;2023-02-28T06:23:28;103539.84;;;0.97;nan
23321;BME280;33376;51.306;4.752;2023-02-28T06:25:53;103538.31;;;1.03;nan
23321;BME280;33376;51.306;4.752;2023-02-28T06:28:22;103539.16;;;1.04;nan
23321;BME280;33376;51.306;4.752;2023-02-28T06:30:47;103536.13;;;1.20;nan
23321;BME280;33376;51.306;4.752;2023-02-28T06:33:13;103531.56;;;1.11;nan
23321;BME280;33376;51.306;4.752;2023-02-28T06:35:38;103537.59;;;1.10;nan
23321;BME280;33376;51.306;4.752;2023-02-28T06:38:03;103536.94;;;1.17;nan
23321;BME280;33376;51.306;4.752;2023-02-28T06:40:29;103541.16;;;1.12;nan
23321;BME280;33376;51.306;4.752;2023-02-28T06:42:59;103544.22;;;1.29;nan
23321;BME280;33376;51.306;4.752;2023-02-28T06:45:24;103556.25;;;1.22;nan
23321;BME280;33376;51.306;4.752;2023-02-28T06:47:51;103544.38;;;1.35;nan
23321;BME280;33376;51.306;4.752;2023-02-28T06:50:17;103540.69;;;1.27;nan
23321;BME280;33376;51.306;4.752;2023-02-28T06:52:45;103534.66;;;1.31;nan
23321;BME280;33376;51.306;4.752;2023-02-28T06:55:10;103540.59;;;1.24;nan
23321;BME280;33376;51.306;4.752;2023-02-28T06:57:36;103547.63;;;1.26;nan
23321;BME280;33376;51.306;4.752;2023-02-28T07:00:04;103565.69;;;1.17;nan
23321;BME280;33376;51.306;4.752;2023-02-28T07:02:30;103564.31;;;1.31;nan
23321;BME280;33376;51.306;4.752;2023-02-28T07:04:56;103567.03;;;1.36;nan
23321;BME280;33376;51.306;4.752;2023-02-28T07:07:22;103563.66;;;1.38;nan
23321;BME280;33376;51.306;4.752;2023-02-28T07:09:47;103563.75;;;1.43;nan
23321;BME280;33376;51.306;4.752;2023-02-28T07:12:12;103564.44;;;1.36;nan
23321;BME280;33376;51.306;4.752;2023-02-28T07:14:38;103548.84;;;1.40;nan
23321;BME280;33376;51.306;4.752;2023-02-28T07:17:03;103546.38;;;1.45;nan
23321;BME280;33376;51.306;4.752;2023-02-28T07:19:28;103549.16;;;1.51;nan
23321;BME280;33376;51.306;4.752;2023-02-28T07:21:54;103558.78;;;1.53;nan
23321;BME280;33376;51.306;4.752;2023-02-28T07:24:20;103584.25;;;1.61;nan
23321;BME280;33376;51.306;4.752;2023-02-28T07:26:45;103591.19;;;1.59;nan
23321;BME280;33376;51.306;4.752;2023-02-28T07:29:10;103576.47;;;1.62;nan
23321;BME280;33376;51.306;4.752;2023-02-28T07:31:36;103568.03;;;1.74;nan
23321;BME280;33376;51.306;4.752;2023-02-28T07:34:01;103568.94;;;1.76;nan
23321;BME280;33376;51.306;4.752;2023-02-28T07:36:28;103554.94;;;1.72;nan
23321;BME280;33376;51.306;4.752;2023-02-28T07:38:53;103551.53;;;1.76;nan
23321;BME280;33376;51.306;4.752;2023-02-28T07:41:19;103542.78;;;1.76;nan
23321;BME280;33376;51.306;4.752;2023-02-28T07:43:45;103500.75;;;2.04;nan
23321;BME280;33376;51.306;4.752;2023-02-28T07:46:11;103512.13;;;2.46;nan
23321;BME280;33376;51.306;4.752;2023-02-28T07:48:37;103516.28;;;2.36;nan
23321;BME280;33376;51.306;4.752;2023-02-28T07:51:02;103508.44;;;2.36;nan
23321;BME280;33376;51.306;4.752;2023-02-28T07:53:28;103497.06;;;2.33;nan
23321;BME280;33376;51.306;4.752;2023-02-28T07:55:54;103468.38;;;2.39;nan
23321;BME280;33376;51.306;4.752;2023-02-28T07:58:20;103465.75;;;2.39;nan
23321;BME280;33376;51.306;4.752;2023-02-28T08:00:45;103464.88;;;2.40;nan
23321;BME280;33376;51.306;4.752;2023-02-28T08:03:11;103445.50;;;2.30;nan
23321;BME280;33376;51.306;4.752;2023-02-28T08:05:39;103451.66;;;2.32;nan
23321;BME280;33376;51.306;4.752;2023-02-28T08:08:05;103413.25;;;2.31;nan
23321;BME280;33376;51.306;4.752;2023-02-28T08:10:30;103411.56;;;2.36;nan
23321;BME280;33376;51.306;4.752;2023-02-28T08:12:55;103410.78;;;2.40;nan
23321;BME280;33376;51.306;4.752;2023-02-28T08:15:21;103371.63;;;2.46;nan
23321;BME280;33376;51.306;4.752;2023-02-28T08:17:46;103363.84;;;2.49;nan
23321;BME280;33376;51.306;4.752;2023-02-28T08:20:11;103344.72;;;2.53;nan
23321;BME280;33376;51.306;4.752;2023-02-28T08:22:36;103338.47;;;2.45;nan
23321;BME280;33376;51.306;4.752;2023-02-28T08:25:02;103330.81;;;2.57;nan
23321;BME280;33376;51.306;4.752;2023-02-28T08:27:27;103326.41;;;2.53;nan
23321;BME280;33376;51.306;4.752;2023-02-28T08:29:52;103301.88;;;2.50;nan
23321;BME280;33376;51.306;4.752;2023-02-28T08:32:17;103298.38;;;2.49;nan
23321;BME280;33376;51.306;4.752;2023-02-28T08:34:43;103283.47;;;2.45;nan
23321;BME280;33376;51.306;4.752;2023-02-28T08:37:08;103296.66;;;2.51;nan
23321;BME280;33376;51.306;4.752;2023-02-28T08:39:34;103292.44;;;2.58;nan
23321;BME280;33376;51.306;4.752;2023-02-28T08:41:59;103282.16;;;2.71;nan
23321;BME280;33376;51.306;4.752;2023-02-28T08:44:25;103252.63;;;2.80;nan
23321;BME280;33376;51.306;4.752;2023-02-28T08:46:50;103249.00;;;2.72;nan
23321;BME280;33376;51.306;4.752;2023-02-28T08:49:15;103229.19;;;2.90;nan
23321;BME280;33376;51.306;4.752;2023-02-28T08:51:40;103233.81;;;3.07;nan
23321;BME280;33376;51.306;4.752;2023-02-28T08:54:06;103197.22;;;3.13;nan
23321;BME280;33376;51.306;4.752;2023-02-28T08:56:32;103177.09;;;3.12;nan
23321;BME280;33376;51.306;4.752;2023-02-28T08:58:57;103148.22;;;3.09;nan
23321;BME280;33376;51.306;4.752;2023-02-28T09:01:24;103117.69;;;3.12;nan
23321;BME280;33376;51.306;4.752;2023-02-28T09:03:50;103113.00;;;3.60;nan
23321;BME280;33376;51.306;4.752;2023-02-28T09:06:16;103045.03;;;3.87;nan
23321;BME280;33376;51.306;4.752;2023-02-28T09:08:42;102940.84;;;3.71;nan
23321;BME280;33376;51.306;4.752;2023-02-28T09:11:08;102904.91;;;3.64;nan
23321;BME280;33376;51.306;4.752;2023-02-28T09:13:34;102882.06;;;3.47;nan
23321;BME280;33376;51.306;4.752;2023-02-28T09:16:00;102906.63;;;3.61;nan
23321;BME280;33376;51.306;4.752;2023-02-28T09:18:25;102882.97;;;3.50;nan
23321;BME280;33376;51.306;4.752;2023-02-28T09:20:51;102893.63;;;3.73;nan
23321;BME280;33376;51.306;4.752;2023-02-28T09:23:16;102869.09;;;3.69;nan
23321;BME280;33376;51.306;4.752;2023-02-28T09:25:48;102887.69;;;4.08;nan
23321;BME280;33376;51.306;4.752;2023-02-28T09:28:14;102902.41;;;3.81;nan
23321;BME280;33376;51.306;4.752;2023-02-28T09:30:46;102889.16;;;3.60;nan
23321;BME280;33376;51.306;4.752;2023-02-28T09:33:12;102868.97;;;3.47;nan
23321;BME280;33376;51.306;4.752;2023-02-28T09:35:37;102908.50;;;3.78;nan
23321;BME280;33376;51.306;4.752;2023-02-28T09:38:02;102848.16;;;3.75;nan
23321;BME280;33376;51.306;4.752;2023-02-28T09:40:28;102817.66;;;3.94;nan
23321;BME280;33376;51.306;4.752;2023-02-28T09:42:54;102771.25;;;3.91;nan
23321;BME280;33376;51.306;4.752;2023-02-28T09:45:28;102806.28;;;4.02;nan
23321;BME280;33376;51.306;4.752;2023-02-28T09:47:58;102804.53;;;4.03;nan
23321;BME280;33376;51.306;4.752;2023-02-28T09:50:36;102751.97;;;3.85;nan
23321;BME280;33376;51.306;4.752;2023-02-28T09:53:06;102716.16;;;3.87;nan
23321;BME280;33376;51.306;4.752;2023-02-28T09:55:37;102729.28;;;3.96;nan
23321;BME280;33376;51.306;4.752;2023-02-28T09:58:04;102709.16;;;3.89;nan
23321;BME280;33376;51.306;4.752;2023-02-28T10:00:31;102700.41;;;3.88;nan
23321;BME280;33376;51.306;4.752;2023-02-28T10:10:40;102695.16;;;3.94;nan
23321;BME280;33376;51.306;4.752;2023-02-28T10:15:58;102665.44;;;3.92;nan
23321;BME280;33376;51.306;4.752;2023-02-28T10:18:26;102644.44;;;3.94;nan
23321;BME280;33376;51.306;4.752;2023-02-28T10:20:52;102647.03;;;3.83;nan
23321;BME280;33376;51.306;4.752;2023-02-28T10:25:48;102612.06;;;3.95;nan
23321;BME280;33376;51.306;4.752;2023-02-28T10:28:16;102564.81;;;4.01;nan
23321;BME280;33376;51.306;4.752;2023-02-28T10:30:52;102585.81;;;4.17;nan
23321;BME280;33376;51.306;4.752;2023-02-28T10:33:31;102632.19;;;4.35;nan
23321;BME280;33376;51.306;4.752;2023-02-28T10:35:57;102630.44;;;4.05;nan
23321;BME280;33376;51.306;4.752;2023-02-28T10:38:24;102619.06;;;3.97;nan
23321;BME280;33376;51.306;4.752;2023-02-28T10:40:50;102634.84;;;4.29;nan
23321;BME280;33376;51.306;4.752;2023-02-28T10:45:52;102645.31;;;4.42;nan
23321;BME280;33376;51.306;4.752;2023-02-28T10:55:37;102536.81;;;4.24;nan
23321;BME280;33376;51.306;4.752;2023-02-28T10:58:02;102575.25;;;4.50;nan
23321;BME280;33376;51.306;4.752;2023-02-28T11:00:36;102521.91;;;4.24;nan
23321;BME280;33376;51.306;4.752;2023-02-28T11:03:02;102514.06;;;4.20;nan
23321;BME280;33376;51.306;4.752;2023-02-28T11:05:47;102496.56;;;4.19;nan
23321;BME280;33376;51.306;4.752;2023-02-28T11:08:14;102521.00;;;4.40;nan
23321;BME280;33376;51.306;4.752;2023-02-28T11:10:43;102509.56;;;4.58;nan
23321;BME280;33376;51.306;4.752;2023-02-28T11:13:15;102483.31;;;4.55;nan
23321;BME280;33376;51.306;4.752;2023-02-28T11:15:41;102501.75;;;4.41;nan
23321;BME280;33376;51.306;4.752;2023-02-28T11:20:38;102508.69;;;4.62;nan
23321;BME280;33376;51.306;4.752;2023-02-28T11:23:05;102457.94;;;4.54;nan
23321;BME280;33376;51.306;4.752;2023-02-28T11:25:36;102467.53;;;4.60;nan
23321;BME280;33376;51.306;4.752;2023-02-28T11:28:04;102453.59;;;4.47;nan
23321;BME280;33376;51.306;4.752;2023-02-28T11:33:00;102523.53;;;4.68;nan
23321;BME280;33376;51.306;4.752;2023-02-28T11:35:31;102471.94;;;4.61;nan
23321;BME280;33376;51.306;4.752;2023-02-28T11:37:57;102466.75;;;4.42;nan
23321;BME280;33376;51.306;4.752;2023-02-28T11:40:25;102492.06;;;4.57;nan
23321;BME280;33376;51.306;4.752;2023-02-28T11:53:19;102463.13;;;4.72;nan
23321;BME280;33376;51.306;4.752;2023-02-28T11:55:54;102428.19;;;4.52;nan
23321;BME280;33376;51.306;4.752;2023-02-28T12:06:14;102444.63;;;4.89;nan
23321;BME280;33376;51.306;4.752;2023-02-28T12:16:20;102459.38;;;5.15;nan
23321;BME280;33376;51.306;4.752;2023-02-28T12:18:53;102456.75;;;5.14;nan
23321;BME280;33376;51.306;4.752;2023-02-28T12:26:43;102369.00;;;5.25;nan
23321;BME280;33376;51.306;4.752;2023-02-28T12:29:12;102404.16;;;5.17;nan
23321;BME280;33376;51.306;4.752;2023-02-28T12:31:41;102403.31;;;5.10;nan
23321;BME280;33376;51.306;4.752;2023-02-28T12:34:12;102451.31;;;5.35;nan
23321;BME280;33376;51.306;4.752;2023-02-28T12:36:38;102401.59;;;5.05;nan
23321;BME280;33376;51.306;4.752;2023-02-28T12:41:34;102406.81;;;5.06;nan
23321;BME280;33376;51.306;4.752;2023-02-28T12:44:06;102373.56;;;5.04;nan
23321;BME280;33376;51.306;4.752;2023-02-28T12:46:44;102376.09;;;5.16;nan
23321;BME280;33376;51.306;4.752;2023-02-28T12:49:14;102445.94;;;5.51;nan
23321;BME280;33376;51.306;4.752;2023-02-28T12:51:40;102470.50;;;5.47;nan
23321;BME280;33376;51.306;4.752;2023-02-28T12:59:13;102352.44;;;5.14;nan
23321;BME280;33376;51.306;4.752;2023-02-28T13:07:00;102423.50;;;5.04;nan
23321;BME280;33376;51.306;4.752;2023-02-28T13:09:29;102454.94;;;5.23;nan
23321;BME280;33376;51.306;4.752;2023-02-28T13:11:55;102430.31;;;5.30;nan
23321;BME280;33376;51.306;4.752;2023-02-28T13:17:10;102423.16;;;5.46;nan
23321;BME280;33376;51.306;4.752;2023-02-28T13:19:36;102412.84;;;5.22;nan
23321;BME280;33376;51.306;4.752;2023-02-28T13:22:02;102404.06;;;5.24;nan
23321;BME280;33376;51.306;4.752;2023-02-28T13:39:45;102427.47;;;5.56;nan
23321;BME280;33376;51.306;4.752;2023-02-28T13:47:27;102404.78;;;5.43;nan
23321;BME280;33376;51.306;4.752;2023-02-28T13:49:53;102398.72;;;5.35;nan
23321;BME280;33376;51.306;4.752;2023-02-28T13:52:19;102459.22;;;5.33;nan
23321;BME280;33376;51.306;4.752;2023-02-28T13:57:30;102338.44;;;5.09;nan
23321;BME280;33376;51.306;4.752;2023-02-28T14:04:59;102408.47;;;5.22;nan
23321;BME280;33376;51.306;4.752;2023-02-28T14:07:26;102418.16;;;5.14;nan
23321;BME280;33376;51.306;4.752;2023-02-28T14:10:01;102452.25;;;5.28;nan
23321;BME280;33376;51.306;4.752;2023-02-28T14:16:15;102395.22;;;5.31;nan
23321;BME280;33376;51.306;4.752;2023-02-28T14:20:47;102408.50;;;5.19;nan
23321;BME280;33376;51.306;4.752;2023-02-28T14:36:17;102444.31;;;5.35;nan
23321;BME280;33376;51.306;4.752;2023-02-28T14:38:47;102454.75;;;5.44;nan
23321;BME280;33376;51.306;4.752;2023-02-28T14:41:17;102459.22;;;5.33;nan
23321;BME280;33376;51.306;4.752;2023-02-28T14:43:52;102446.38;;;4.93;nan
23321;BME280;33376;51.306;4.752;2023-02-28T14:46:18;102441.75;;;5.26;nan
23321;BME280;33376;51.306;4.752;2023-02-28T14:48:45;102463.81;;;5.07;nan
23321;BME280;33376;51.306;4.752;2023-02-28T14:51:10;102427.06;;;4.97;nan
23321;BME280;33376;51.306;4.752;2023-02-28T14:53:36;102437.53;;;5.06;nan
23321;BME280;33376;51.306;4.752;2023-02-28T14:56:02;102465.47;;;5.16;nan
23321;BME280;33376;51.306;4.752;2023-02-28T14:58:31;102442.72;;;5.12;nan
23321;BME280;33376;51.306;4.752;2023-02-28T15:00:57;102402.34;;;5.19;nan
23321;BME280;33376;51.306;4.752;2023-02-28T15:05:52;102411.22;;;5.07;nan
23321;BME280;33376;51.306;4.752;2023-02-28T15:08:18;102376.16;;;5.07;nan
23321;BME280;33376;51.306;4.752;2023-02-28T15:11:06;102372.66;;;5.06;nan
23321;BME280;33376;51.306;4.752;2023-02-28T15:13:45;102397.94;;;5.24;nan
23321;BME280;33376;51.306;4.752;2023-02-28T15:18:59;102414.72;;;5.06;nan
23321;BME280;33376;51.306;4.752;2023-02-28T15:21:35;102422.56;;;5.11;nan
23321;BME280;33376;51.306;4.752;2023-02-28T15:24:17;102430.44;;;5.12;nan
23321;BME280;33376;51.306;4.752;2023-02-28T15:29:51;102415.59;;;5.08;nan
23321;BME280;33376;51.306;4.752;2023-02-28T15:34:46;102448.03;;;5.03;nan
23321;BME280;33376;51.306;4.752;2023-02-28T15:37:28;102447.16;;;5.07;nan
23321;BME280;33376;51.306;4.752;2023-02-28T15:39:58;102439.28;;;5.05;nan
23321;BME280;33376;51.306;4.752;2023-02-28T15:42:29;102448.84;;;5.11;nan
23321;BME280;33376;51.306;4.752;2023-02-28T15:44:54;102437.53;;;5.01;nan
23321;BME280;33376;51.306;4.752;2023-02-28T15:47:21;102465.59;;;5.02;nan
23321;BME280;33376;51.306;4.752;2023-02-28T15:49:53;102486.59;;;5.02;nan
23321;BME280;33376;51.306;4.752;2023-02-28T15:52:24;102428.78;;;5.02;nan
23321;BME280;33376;51.306;4.752;2023-02-28T15:54:51;102445.47;;;4.95;nan
23321;BME280;33376;51.306;4.752;2023-02-28T15:57:24;102522.59;;;4.93;nan
23321;BME280;33376;51.306;4.752;2023-02-28T15:59:54;102521.75;;;4.85;nan
23321;BME280;33376;51.306;4.752;2023-02-28T16:02:33;102474.41;;;4.89;nan
23321;BME280;33376;51.306;4.752;2023-02-28T16:07:24;102478.84;;;4.81;nan
23321;BME280;33376;51.306;4.752;2023-02-28T16:09:50;102513.88;;;4.83;nan
23321;BME280;33376;51.306;4.752;2023-02-28T16:12:15;102475.31;;;4.81;nan
23321;BME280;33376;51.306;4.752;2023-02-28T16:14:41;102493.81;;;4.66;nan
23321;BME280;33376;51.306;4.752;2023-02-28T16:17:11;102518.34;;;4.56;nan